createdAt,value
2019-02-16T00:00:42.016Z,7.58
2019-02-16T00:01:34.589Z,7.67
2019-02-16T00:02:27.139Z,7.62
2019-02-16T00:03:19.894Z,7.6
2019-02-16T00:04:12.212Z,7.6
2019-02-16T00:05:04.500Z,7.57
2019-02-16T00:05:56.986Z,7.51
2019-02-16T00:06:50.049Z,7.58
2019-02-16T00:07:42.362Z,7.5
2019-02-16T00:08:34.311Z,7.48
2019-02-16T00:09:26.616Z,7.51
2019-02-16T00:10:18.721Z,7.57
2019-02-16T00:11:10.868Z,7.51
2019-02-16T00:12:02.591Z,7.47
2019-02-16T00:12:54.659Z,7.45
2019-02-16T00:13:46.813Z,7.39
2019-02-16T00:14:39.027Z,7.36
2019-02-16T00:15:31.225Z,7.34
2019-02-16T00:16:23.245Z,7.3
2019-02-16T00:17:15.598Z,7.34
2019-02-16T00:18:08.579Z,7.29
2019-02-16T00:19:02.264Z,7.29
2019-02-16T00:19:53.910Z,7.24
2019-02-16T00:20:45.957Z,7.23
2019-02-16T00:21:38.328Z,7.16
2019-02-16T00:22:30.504Z,7.18
2019-02-16T00:23:22.842Z,7.16
2019-02-16T00:24:14.880Z,7.12
2019-02-16T00:25:07.187Z,7.16
2019-02-16T00:25:59.256Z,7.12
2019-02-16T00:26:51.559Z,7.16
2019-02-16T00:27:43.563Z,7.19
2019-02-16T00:28:35.582Z,7.23
2019-02-16T00:29:27.235Z,7.23
2019-02-16T00:30:20.417Z,7.26
2019-02-16T00:31:12.854Z,7.34
2019-02-16T00:32:05.577Z,7.27
2019-02-16T00:32:57.759Z,7.39
2019-02-16T00:33:49.590Z,7.39
2019-02-16T00:34:42.392Z,7.3
2019-02-16T00:35:29.397Z,7.3
2019-02-16T00:36:09.733Z,7.23
2019-02-16T00:36:50.280Z,7.21
2019-02-16T00:37:30.764Z,7.27
2019-02-16T00:38:11.135Z,7.26
2019-02-16T00:38:51.576Z,7.23
2019-02-16T00:39:41.739Z,7.18
2019-02-16T00:40:21.476Z,7.16
2019-02-16T00:41:01.966Z,7.14
2019-02-16T00:41:42.346Z,7.15
2019-02-16T00:42:22.719Z,7.15
2019-02-16T00:43:03.532Z,7.18
2019-02-16T00:43:44.052Z,7.11
2019-02-16T00:44:24.311Z,7.16
2019-02-16T00:45:04.807Z,7.24
2019-02-16T00:45:45.297Z,7.14
2019-02-16T00:46:25.696Z,7.21
2019-02-16T00:47:06.283Z,7.14
2019-02-16T00:47:46.652Z,7.24
2019-02-16T00:48:27.051Z,7.19
2019-02-16T00:49:07.542Z,7.19
2019-02-16T00:49:47.843Z,7.23
2019-02-16T00:50:28.346Z,7.27
2019-02-16T00:51:13.441Z,7.19
2019-02-16T00:51:49.356Z,7.18
2019-02-16T00:52:29.940Z,7.18
2019-02-16T00:53:10.548Z,7.14
2019-02-16T00:53:50.820Z,7.29
2019-02-16T00:54:31.267Z,7.26
2019-02-16T00:55:11.618Z,7.14
2019-02-16T00:55:52.225Z,7.16
2019-02-16T00:56:32.662Z,7.08
2019-02-16T00:57:13.279Z,7.14
2019-02-16T00:57:53.681Z,7.11
2019-02-16T00:58:34.373Z,7.07
2019-02-16T00:59:14.680Z,7.14
2019-02-16T00:59:55.043Z,7.08
2019-02-16T01:00:35.537Z,6.99
2019-02-16T01:01:16.011Z,7.08
2019-02-16T01:01:56.453Z,7.08
2019-02-16T01:02:36.920Z,7.01
2019-02-16T01:03:17.518Z,7.05
2019-02-16T01:03:57.981Z,7.04
2019-02-16T01:04:39.259Z,6.94
2019-02-16T01:05:19.167Z,7
2019-02-16T01:05:59.894Z,7.09
2019-02-16T01:06:40.172Z,7.11
2019-02-16T01:07:20.616Z,7.11
2019-02-16T01:08:01.127Z,7.07
2019-02-16T01:08:41.612Z,7.05
2019-02-16T01:09:21.951Z,7.08
2019-02-16T01:10:02.372Z,7.08
2019-02-16T01:10:42.816Z,7.07
2019-02-16T01:11:23.437Z,7.08
2019-02-16T01:12:03.841Z,7.12
2019-02-16T01:12:44.158Z,7.15
2019-02-16T01:13:24.509Z,7.11
2019-02-16T01:14:04.874Z,7.11
2019-02-16T01:14:45.407Z,7.14
2019-02-16T01:15:25.888Z,7.11
2019-02-16T01:16:06.211Z,7.09
2019-02-16T01:16:46.651Z,7.09
2019-02-16T01:17:27.210Z,7.09
2019-02-16T01:18:09.198Z,7.07
2019-02-16T01:18:48.461Z,7.08
2019-02-16T01:19:28.821Z,7.08
2019-02-16T01:20:09.276Z,7.05
2019-02-16T01:20:49.974Z,6.97
2019-02-16T01:21:30.389Z,7.09
2019-02-16T01:22:10.989Z,7.15
2019-02-16T01:22:51.338Z,7.12
2019-02-16T01:23:31.640Z,7.08
2019-02-16T01:24:12.221Z,6.97
2019-02-16T01:24:52.595Z,6.9
2019-02-16T01:25:33.043Z,6.93
2019-02-16T01:26:13.443Z,6.96
2019-02-16T01:26:53.912Z,6.87
2019-02-16T01:27:34.344Z,6.91
2019-02-16T01:28:14.713Z,6.87
2019-02-16T01:28:55.304Z,6.9
2019-02-16T01:29:35.827Z,6.86
2019-02-16T01:30:16.354Z,6.83
2019-02-16T01:30:56.877Z,6.82
2019-02-16T01:31:37.204Z,6.89
2019-02-16T01:32:17.869Z,6.83
2019-02-16T01:32:58.267Z,6.82
2019-02-16T01:33:38.793Z,6.6
2019-02-16T01:34:19.078Z,6.75
2019-02-16T01:34:59.669Z,6.65
2019-02-16T01:35:40.239Z,6.73
2019-02-16T01:36:20.641Z,6.69
2019-02-16T01:37:01.414Z,6.72
2019-02-16T01:37:41.791Z,6.65
2019-02-16T01:38:22.714Z,6.63
2019-02-16T01:39:02.965Z,6.73
2019-02-16T01:39:43.458Z,6.79
2019-02-16T01:40:24.074Z,6.68
2019-02-16T01:41:04.583Z,6.68
2019-02-16T01:41:45.078Z,6.61
2019-02-16T01:42:25.771Z,6.54
2019-02-16T01:43:06.131Z,6.53
2019-02-16T01:43:46.640Z,6.61
2019-02-16T01:44:26.912Z,6.55
2019-02-16T01:45:07.356Z,6.73
2019-02-16T01:45:48.055Z,6.68
2019-02-16T01:46:28.387Z,6.71
2019-02-16T01:47:08.778Z,6.73
2019-02-16T01:47:49.159Z,6.71
2019-02-16T01:48:29.610Z,6.61
2019-02-16T01:49:10.088Z,6.73
2019-02-16T01:49:50.760Z,6.69
2019-02-16T01:50:31.016Z,6.78
2019-02-16T01:51:11.679Z,6.71
2019-02-16T01:51:52.072Z,6.65
2019-02-16T01:52:32.577Z,6.69
2019-02-16T01:53:12.973Z,6.68
2019-02-16T01:53:53.318Z,6.78
2019-02-16T01:54:33.759Z,6.69
2019-02-16T01:55:14.245Z,6.73
2019-02-16T01:55:54.743Z,6.75
2019-02-16T01:56:35.235Z,6.78
2019-02-16T01:57:15.669Z,6.72
2019-02-16T01:57:56.049Z,6.69
2019-02-16T01:58:36.509Z,6.64
2019-02-16T01:59:16.944Z,6.68
2019-02-16T01:59:57.406Z,6.65
2019-02-16T02:00:37.807Z,6.65
2019-02-16T02:01:18.310Z,6.71
2019-02-16T02:01:58.708Z,6.69
2019-02-16T02:02:39.089Z,6.58
2019-02-16T02:03:19.508Z,6.54
2019-02-16T02:04:00.000Z,6.57
2019-02-16T02:04:40.359Z,6.57
2019-02-16T02:05:20.667Z,6.54
2019-02-16T02:06:01.326Z,6.57
2019-02-16T02:06:41.719Z,6.54
2019-02-16T02:07:22.159Z,6.6
2019-02-16T02:08:03.612Z,6.61
2019-02-16T02:08:44.076Z,6.51
2019-02-16T02:09:24.451Z,6.55
2019-02-16T02:10:04.867Z,6.53
2019-02-16T02:10:45.187Z,6.51
2019-02-16T02:11:25.819Z,6.58
2019-02-16T02:12:06.668Z,6.57
2019-02-16T02:12:46.623Z,6.57
2019-02-16T02:13:27.065Z,6.46
2019-02-16T02:14:07.645Z,6.55
2019-02-16T02:14:47.885Z,6.64
2019-02-16T02:15:28.348Z,6.53
2019-02-16T02:16:08.892Z,6.57
2019-02-16T02:16:49.345Z,6.55
2019-02-16T02:17:29.955Z,6.5
2019-02-16T02:18:10.415Z,6.57
2019-02-16T02:18:51.172Z,6.58
2019-02-16T02:19:31.309Z,6.57
2019-02-16T02:20:11.918Z,6.55
2019-02-16T02:20:52.153Z,6.51
2019-02-16T02:21:40.795Z,6.6
2019-02-16T02:22:13.267Z,6.68
2019-02-16T02:22:53.643Z,6.61
2019-02-16T02:23:34.101Z,6.64
2019-02-16T02:24:14.531Z,6.69
2019-02-16T02:24:55.070Z,6.65
2019-02-16T02:25:35.413Z,6.63
2019-02-16T02:26:15.923Z,6.64
2019-02-16T02:26:56.282Z,6.54
2019-02-16T02:27:36.696Z,6.68
2019-02-16T02:28:17.232Z,6.55
2019-02-16T02:28:57.990Z,6.54
2019-02-16T02:29:38.388Z,6.54
2019-02-16T02:30:18.697Z,6.5
2019-02-16T02:30:59.739Z,6.58
2019-02-16T02:31:40.059Z,6.51
2019-02-16T02:32:20.456Z,6.53
2019-02-16T02:33:01.169Z,6.57
2019-02-16T02:33:41.477Z,6.6
2019-02-16T02:34:21.947Z,6.51
2019-02-16T02:35:03.190Z,6.53
2019-02-16T02:35:43.833Z,6.57
2019-02-16T02:36:24.150Z,6.57
2019-02-16T02:37:04.600Z,6.55
2019-02-16T02:37:45.108Z,6.53
2019-02-16T02:38:25.556Z,6.65
2019-02-16T02:39:05.809Z,6.54
2019-02-16T02:39:46.323Z,6.57
2019-02-16T02:40:26.746Z,6.57
2019-02-16T02:41:07.186Z,6.54
2019-02-16T02:41:47.504Z,6.64
2019-02-16T02:42:27.966Z,6.68
2019-02-16T02:43:08.269Z,6.79
2019-02-16T02:43:48.682Z,6.81
2019-02-16T02:44:29.422Z,6.86
2019-02-16T02:45:09.781Z,6.89
2019-02-16T02:45:50.337Z,6.82
2019-02-16T02:46:30.708Z,6.94
2019-02-16T02:47:12.219Z,6.87
2019-02-16T02:47:52.685Z,6.89
2019-02-16T02:48:32.985Z,6.79
2019-02-16T02:49:13.589Z,6.75
2019-02-16T02:49:54.062Z,6.78
2019-02-16T02:50:34.393Z,6.75
2019-02-16T02:51:14.917Z,6.68
2019-02-16T02:51:55.262Z,6.63
2019-02-16T02:52:35.806Z,6.6
2019-02-16T02:53:16.123Z,6.64
2019-02-16T02:53:56.868Z,6.5
2019-02-16T02:54:37.200Z,6.53
2019-02-16T02:55:17.633Z,6.5
2019-02-16T02:55:58.173Z,6.48
2019-02-16T02:56:38.685Z,6.57
2019-02-16T02:57:19.038Z,6.54
2019-02-16T02:57:59.489Z,6.6
2019-02-16T02:58:39.963Z,6.53
2019-02-16T02:59:20.325Z,6.53
2019-02-16T03:00:00.907Z,6.51
2019-02-16T03:00:41.259Z,6.61
2019-02-16T03:01:21.636Z,6.68
2019-02-16T03:02:02.115Z,6.68
2019-02-16T03:02:42.605Z,6.79
2019-02-16T03:03:23.198Z,6.83
2019-02-16T03:04:03.426Z,6.86
2019-02-16T03:04:43.956Z,6.93
2019-02-16T03:05:24.306Z,6.97
2019-02-16T03:06:04.822Z,6.9
2019-02-16T03:06:45.125Z,6.99
2019-02-16T03:07:25.548Z,7.05
2019-02-16T03:08:06.097Z,7.05
2019-02-16T03:08:46.446Z,7.05
2019-02-16T03:09:26.953Z,6.97
2019-02-16T03:10:07.373Z,7.05
2019-02-16T03:10:48.189Z,7.01
2019-02-16T03:11:28.167Z,7
2019-02-16T03:12:08.527Z,7.05
2019-02-16T03:12:48.959Z,6.89
2019-02-16T03:13:29.503Z,6.93
2019-02-16T03:14:09.950Z,6.97
2019-02-16T03:14:50.333Z,6.83
2019-02-16T03:15:30.662Z,6.83
2019-02-16T03:16:11.034Z,6.89
2019-02-16T03:16:51.408Z,6.86
2019-02-16T03:17:31.835Z,6.79
2019-02-16T03:18:12.246Z,6.91
2019-02-16T03:18:52.665Z,6.81
2019-02-16T03:19:32.981Z,6.78
2019-02-16T03:20:13.370Z,6.86
2019-02-16T03:20:53.853Z,6.91
2019-02-16T03:21:34.235Z,6.82
2019-02-16T03:22:14.630Z,6.82
2019-02-16T03:22:55.039Z,6.83
2019-02-16T03:23:35.451Z,6.93
2019-02-16T03:24:15.831Z,6.9
2019-02-16T03:24:56.205Z,6.9
2019-02-16T03:25:36.574Z,6.96
2019-02-16T03:26:17.040Z,6.93
2019-02-16T03:26:57.461Z,6.93
2019-02-16T03:27:37.835Z,6.91
2019-02-16T03:28:18.228Z,6.96
2019-02-16T03:28:58.719Z,6.93
2019-02-16T03:29:38.981Z,6.82
2019-02-16T03:30:19.466Z,6.87
2019-02-16T03:30:59.852Z,6.87
2019-02-16T03:31:40.358Z,6.83
2019-02-16T03:32:20.720Z,6.73
2019-02-16T03:33:01.132Z,6.68
2019-02-16T03:33:41.491Z,6.76
2019-02-16T03:34:21.897Z,6.69
2019-02-16T03:35:02.348Z,6.64
2019-02-16T03:35:42.743Z,6.69
2019-02-16T03:36:23.111Z,6.71
2019-02-16T03:37:03.499Z,6.61
2019-02-16T03:37:43.966Z,6.65
2019-02-16T03:38:24.299Z,6.76
2019-02-16T03:39:04.704Z,6.81
2019-02-16T03:39:45.082Z,6.72
2019-02-16T03:40:25.464Z,6.64
2019-02-16T03:41:05.883Z,6.65
2019-02-16T03:41:46.257Z,6.71
2019-02-16T03:42:26.662Z,6.63
2019-02-16T03:43:07.119Z,6.64
2019-02-16T03:43:47.625Z,6.64
2019-02-16T03:44:27.979Z,6.69
2019-02-16T03:45:08.304Z,6.69
2019-02-16T03:45:48.726Z,6.69
2019-02-16T03:46:29.133Z,6.69
2019-02-16T03:47:09.579Z,6.72
2019-02-16T03:47:50.126Z,6.69
2019-02-16T03:48:30.544Z,6.81
2019-02-16T03:49:11.003Z,6.65
2019-02-16T03:49:51.371Z,6.69
2019-02-16T03:50:31.865Z,6.68
2019-02-16T03:51:12.375Z,6.68
2019-02-16T03:51:52.609Z,6.68
2019-02-16T03:52:33.184Z,6.64
2019-02-16T03:53:13.464Z,6.69
2019-02-16T03:53:53.855Z,6.71
2019-02-16T03:54:34.244Z,6.69
2019-02-16T03:55:14.652Z,6.65
2019-02-16T03:55:55.043Z,6.57
2019-02-16T03:56:35.447Z,6.65
2019-02-16T03:57:15.830Z,6.53
2019-02-16T03:57:56.264Z,6.55
2019-02-16T03:58:36.621Z,6.54
2019-02-16T03:59:17.040Z,6.55
2019-02-16T03:59:57.504Z,6.58
2019-02-16T04:00:37.937Z,6.53
2019-02-16T04:01:18.276Z,6.5
2019-02-16T04:01:58.653Z,6.64
2019-02-16T04:02:39.073Z,6.54
2019-02-16T04:03:19.484Z,6.54
2019-02-16T04:04:00.076Z,6.55
2019-02-16T04:04:40.320Z,6.57
2019-02-16T04:05:20.703Z,6.53
2019-02-16T04:06:01.158Z,6.58
2019-02-16T04:06:41.625Z,6.61
2019-02-16T04:07:22.003Z,6.58
2019-02-16T04:08:02.514Z,6.57
2019-02-16T04:08:42.780Z,6.6
2019-02-16T04:09:23.073Z,6.53
2019-02-16T04:10:03.522Z,6.54
2019-02-16T04:10:44.025Z,6.58
2019-02-16T04:11:24.397Z,6.5
2019-02-16T04:12:04.803Z,6.5
2019-02-16T04:12:45.257Z,6.43
2019-02-16T04:13:25.643Z,6.42
2019-02-16T04:14:06.034Z,6.48
2019-02-16T04:14:46.489Z,6.43
2019-02-16T04:15:26.933Z,6.3
2019-02-16T04:16:07.675Z,6.32
2019-02-16T04:16:48.097Z,6.38
2019-02-16T04:17:28.487Z,6.35
2019-02-16T04:18:08.966Z,6.33
2019-02-16T04:18:49.298Z,6.27
2019-02-16T04:19:29.779Z,6.28
2019-02-16T04:20:10.145Z,6.3
2019-02-16T04:20:50.623Z,6.28
2019-02-16T04:21:30.924Z,6.28
2019-02-16T04:22:11.297Z,6.27
2019-02-16T04:22:51.706Z,6.25
2019-02-16T04:23:32.114Z,6.19
2019-02-16T04:24:12.536Z,6.13
2019-02-16T04:24:52.985Z,6.32
2019-02-16T04:25:33.500Z,6.24
2019-02-16T04:26:13.783Z,6.32
2019-02-16T04:26:54.228Z,6.3
2019-02-16T04:27:34.708Z,6.38
2019-02-16T04:28:15.119Z,6.32
2019-02-16T05:05:49.724Z,4.83
2019-02-16T05:06:41.999Z,4.83
2019-02-16T05:07:34.622Z,4.75
2019-02-16T05:08:26.758Z,4.72
2019-02-16T05:09:19.115Z,4.68
2019-02-16T05:10:12.357Z,4.65
2019-02-16T05:11:04.298Z,4.69
2019-02-16T05:11:56.030Z,4.8
2019-02-16T05:12:48.086Z,4.8
2019-02-16T05:13:40.097Z,4.91
2019-02-16T05:14:32.519Z,4.88
2019-02-16T05:15:24.628Z,4.93
2019-02-16T05:16:17.385Z,5.02
2019-02-16T05:17:09.597Z,5.01
2019-02-16T05:18:01.583Z,5.11
2019-02-16T05:18:53.754Z,5.24
2019-02-16T05:19:46.189Z,5.32
2019-02-16T05:20:38.646Z,5.35
2019-02-16T05:21:30.745Z,5.38
2019-02-16T05:22:22.947Z,5.45
2019-02-16T05:23:15.317Z,5.48
2019-02-16T05:24:08.124Z,5.55
2019-02-16T05:25:00.487Z,5.55
2019-02-16T05:25:52.506Z,5.45
2019-02-16T05:26:44.614Z,5.41
2019-02-16T05:27:36.808Z,5.32
2019-02-16T05:28:29.480Z,5.37
2019-02-16T05:29:22.120Z,5.33
2019-02-16T05:30:14.174Z,5.35
2019-02-16T05:31:06.415Z,5.37
2019-02-16T05:31:58.540Z,5.44
2019-02-16T05:32:50.531Z,5.51
2019-02-16T05:33:42.671Z,5.41
2019-02-16T05:34:34.996Z,5.48
2019-02-16T05:35:27.133Z,5.4
2019-02-16T05:36:19.166Z,5.51
2019-02-16T05:37:11.510Z,5.49
2019-02-16T05:38:03.413Z,5.63
2019-02-16T05:38:56.032Z,5.63
2019-02-16T05:39:49.093Z,5.7
2019-02-16T05:40:41.082Z,5.69
2019-02-16T05:41:33.605Z,5.67
2019-02-16T05:42:25.963Z,5.74
2019-02-16T05:43:18.511Z,5.83
2019-02-16T05:44:10.643Z,5.85
2019-02-16T05:45:03.220Z,5.88
2019-02-16T05:45:55.505Z,5.77
2019-02-16T05:46:47.530Z,5.81
2019-02-16T05:47:39.667Z,5.75
2019-02-16T05:48:29.770Z,5.83
2019-02-16T05:50:38.009Z,5.83
2019-02-16T05:51:30.429Z,5.85
2019-02-16T05:52:23.933Z,5.77
2019-02-16T05:53:16.260Z,5.8
2019-02-16T05:54:08.613Z,5.88
2019-02-16T05:55:01.064Z,5.87
2019-02-16T05:55:53.255Z,5.88
2019-02-16T05:56:46.193Z,5.81
2019-02-16T05:57:38.376Z,5.75
2019-02-16T05:58:31.140Z,5.75
2019-02-16T05:59:23.428Z,5.78
2019-02-16T06:00:15.850Z,5.73
2019-02-16T06:01:08.482Z,5.73
2019-02-16T06:02:01.146Z,5.8
2019-02-16T06:02:53.551Z,5.77
2019-02-16T06:03:45.908Z,5.78
2019-02-16T06:04:39.582Z,5.92
2019-02-16T06:05:31.946Z,5.92
2019-02-16T06:06:23.988Z,5.88
2019-02-16T06:07:15.799Z,5.87
2019-02-16T06:08:08.060Z,5.77
2019-02-16T06:09:00.385Z,5.85
2019-02-16T06:09:52.929Z,5.75
2019-02-16T06:10:45.112Z,5.73
2019-02-16T06:11:37.550Z,5.81
2019-02-16T06:12:29.674Z,5.75
2019-02-16T06:13:21.939Z,5.77
2019-02-16T06:14:14.342Z,5.84
2019-02-16T06:15:07.477Z,5.77
2019-02-16T06:15:59.882Z,5.88
2019-02-16T06:16:52.475Z,5.93
2019-02-16T06:17:45.468Z,5.93
2019-02-16T06:18:37.798Z,5.96
2019-02-16T06:19:30.621Z,5.9
2019-02-16T06:20:23.512Z,5.88
2019-02-16T06:21:16.111Z,5.88
2019-02-16T06:22:08.542Z,5.84
2019-02-16T06:23:04.086Z,5.96
2019-02-16T06:23:53.494Z,5.95
2019-02-16T06:24:45.839Z,5.92
2019-02-16T06:25:38.507Z,5.93
2019-02-16T06:26:30.935Z,5.99
2019-02-16T06:27:23.467Z,6.02
2019-02-16T06:28:16.097Z,6.02
2019-02-16T06:29:08.336Z,6.02
2019-02-16T06:30:00.428Z,6.03
2019-02-16T06:30:52.311Z,6.05
2019-02-16T06:31:44.416Z,5.99
2019-02-16T06:32:36.115Z,6.08
2019-02-16T06:34:18.030Z,6.05
2019-02-16T06:35:10.277Z,6.08
2019-02-16T06:36:02.893Z,6.05
2019-02-16T06:36:55.216Z,6.11
2019-02-16T06:37:47.324Z,6.1
2019-02-16T06:38:39.559Z,6.08
2019-02-16T06:39:31.737Z,6.02
2019-02-16T06:40:24.157Z,6.05
2019-02-16T06:41:16.287Z,5.96
2019-02-16T06:42:08.636Z,5.85
2019-02-16T06:43:00.804Z,5.92
2019-02-16T06:43:52.456Z,5.92
2019-02-16T06:44:44.742Z,5.9
2019-02-16T06:45:37.281Z,5.9
2019-02-16T06:46:29.194Z,5.93
2019-02-16T06:47:21.311Z,5.85
2019-02-16T06:48:13.693Z,5.78
2019-02-16T06:49:05.829Z,5.85
2019-02-16T06:49:58.140Z,5.88
2019-02-16T06:50:51.177Z,5.67
2019-02-16T06:51:43.316Z,5.56
2019-02-16T06:52:35.260Z,5.55
2019-02-16T06:53:27.284Z,5.7
2019-02-16T06:54:19.938Z,5.81
2019-02-16T06:55:11.930Z,5.88
2019-02-16T06:56:03.986Z,5.78
2019-02-16T06:56:56.018Z,5.95
2019-02-16T06:57:48.125Z,6.08
2019-02-16T06:58:40.261Z,6.14
2019-02-16T06:59:32.621Z,6.11
2019-02-16T07:00:25.071Z,6.21
2019-02-16T07:01:17.133Z,6.1
2019-02-16T07:02:09.288Z,6.19
2019-02-16T07:02:59.269Z,6.28
2019-02-16T07:03:39.928Z,6.43
2019-02-16T07:04:20.352Z,6.33
2019-02-16T07:05:00.924Z,6.32
2019-02-16T07:05:42.198Z,6.25
2019-02-16T07:06:22.881Z,6.42
2019-02-16T07:07:03.558Z,6.48
2019-02-16T07:07:44.176Z,6.45
2019-02-16T07:08:24.771Z,6.33
2019-02-16T07:09:05.969Z,6.38
2019-02-16T07:09:46.974Z,6.38
2019-02-16T07:10:27.644Z,6.53
2019-02-16T07:11:07.854Z,6.51
2019-02-16T07:11:48.206Z,6.65
2019-02-16T07:12:28.598Z,6.64
2019-02-16T07:13:09.032Z,6.86
2019-02-16T07:13:49.504Z,7.08
2019-02-16T07:14:31.885Z,7.19
2019-02-16T07:15:10.781Z,7.24
2019-02-16T07:15:51.301Z,7.55
2019-02-16T07:16:31.544Z,7.63
2019-02-16T07:17:12.599Z,7.67
2019-02-16T07:17:52.850Z,7.74
2019-02-16T07:18:33.372Z,7.81
2019-02-16T07:19:13.964Z,7.76
2019-02-16T07:19:54.413Z,7.71
2019-02-16T07:20:35.116Z,7.74
2019-02-16T07:21:15.570Z,7.62
2019-02-16T07:21:55.973Z,7.57
2019-02-16T07:22:37.653Z,7.55
2019-02-16T07:23:22.369Z,7.57
2019-02-16T07:23:58.983Z,7.48
2019-02-16T07:24:40.058Z,7.54
2019-02-16T07:25:20.552Z,7.6
2019-02-16T07:26:01.277Z,7.57
2019-02-16T07:26:42.096Z,7.57
2019-02-16T07:27:22.692Z,7.6
2019-02-16T07:28:03.300Z,7.67
2019-02-16T07:28:43.890Z,7.73
2019-02-16T07:29:24.197Z,7.84
2019-02-16T07:30:04.499Z,7.89
2019-02-16T07:30:45.213Z,8.04
2019-02-16T07:31:25.765Z,8.14
2019-02-16T07:32:06.107Z,8.29
2019-02-16T07:32:46.423Z,8.45
2019-02-16T07:33:27.155Z,8.6
2019-02-16T07:34:07.697Z,8.78
2019-02-16T07:34:48.108Z,8.96
2019-02-16T07:35:28.525Z,9.15
2019-02-16T07:36:09.081Z,9.27
2019-02-16T07:36:49.438Z,9.42
2019-02-16T07:37:29.870Z,9.55
2019-02-16T07:38:10.197Z,9.65
2019-02-16T07:38:50.768Z,9.91
2019-02-16T07:39:31.182Z,10.07
2019-02-16T07:40:11.602Z,10.25
2019-02-16T07:40:52.051Z,10.32
2019-02-16T07:41:32.490Z,10.31
2019-02-16T07:42:12.950Z,10.36
2019-02-16T07:42:53.574Z,10.46
2019-02-16T07:43:33.853Z,10.63
2019-02-16T07:44:14.535Z,10.69
2019-02-16T07:44:55.120Z,10.75
2019-02-16T07:45:35.376Z,10.78
2019-02-16T07:46:15.715Z,10.91
2019-02-16T07:46:56.235Z,11.09
2019-02-16T07:47:36.748Z,11.13
2019-02-16T07:48:17.139Z,11.23
2019-02-16T07:48:57.607Z,11.26
2019-02-16T07:49:38.165Z,11.41
2019-02-16T07:50:18.527Z,11.62
2019-02-16T07:50:59.253Z,11.72
2019-02-16T07:51:39.749Z,11.84
2019-02-16T07:52:20.192Z,11.96
2019-02-16T07:53:00.921Z,12.12
2019-02-16T07:53:41.313Z,12.16
2019-02-16T07:54:21.978Z,12.29
2019-02-16T07:55:02.350Z,12.33
2019-02-16T07:55:42.877Z,12.44
2019-02-16T07:56:23.554Z,12.52
2019-02-16T07:57:04.245Z,12.52
2019-02-16T07:57:44.681Z,12.46
2019-02-16T07:58:25.402Z,12.54
2019-02-16T07:59:05.755Z,12.58
2019-02-16T07:59:46.483Z,12.59
2019-02-16T08:00:26.751Z,12.63
2019-02-16T08:01:07.520Z,12.74
2019-02-16T08:01:48.150Z,12.77
2019-02-16T08:02:28.903Z,12.85
2019-02-16T08:03:09.508Z,12.77
2019-02-16T08:03:49.972Z,12.91
2019-02-16T08:04:30.945Z,12.89
2019-02-16T08:05:11.567Z,12.77
2019-02-16T08:05:52.078Z,12.87
2019-02-16T08:06:32.761Z,12.98
2019-02-16T08:07:13.762Z,12.94
2019-02-16T08:07:54.221Z,12.98
2019-02-16T08:08:34.682Z,13.09
2019-02-16T08:09:15.193Z,13.31
2019-02-16T08:09:55.555Z,13.39
2019-02-16T08:10:35.989Z,13.5
2019-02-16T08:11:16.377Z,13.65
2019-02-16T08:11:57.063Z,13.81
2019-02-16T08:12:37.535Z,13.87
2019-02-16T08:13:17.964Z,13.9
2019-02-16T08:13:58.371Z,13.87
2019-02-16T08:14:38.966Z,13.91
2019-02-16T08:15:19.523Z,14.11
2019-02-16T08:17:36.869Z,14.64
2019-02-16T08:18:29.122Z,15.04
2019-02-16T08:19:23.011Z,15.01
2019-02-16T08:20:14.526Z,15.38
2019-02-16T08:21:06.665Z,15.67
2019-02-16T08:21:59.024Z,15.85
2019-02-16T08:22:52.247Z,15.92
2019-02-16T08:23:45.628Z,15.96
2019-02-16T08:24:38.678Z,15.95
2019-02-16T08:25:31.603Z,16.04
2019-02-16T08:26:24.841Z,16.07
2019-02-16T08:27:20.205Z,16.1
2019-02-16T08:28:14.417Z,16.13
2019-02-16T08:29:07.117Z,16.22
2019-02-16T08:29:59.967Z,16.13
2019-02-16T08:30:53.169Z,16.26
2019-02-16T08:31:46.346Z,16.03
2019-02-16T08:32:40.112Z,16.07
2019-02-16T08:33:33.061Z,15.88
2019-02-16T08:34:25.926Z,15.56
2019-02-16T08:35:21.528Z,15.33
2019-02-16T08:36:18.057Z,15.07
2019-02-16T08:37:11.667Z,14.66
2019-02-16T08:38:04.707Z,14.6
2019-02-16T08:38:59.254Z,14.35
2019-02-16T08:39:51.704Z,14.12
2019-02-16T08:40:46.084Z,13.83
2019-02-16T08:41:39.078Z,13.62
2019-02-16T08:42:33.634Z,13.51
2019-02-16T08:43:32.567Z,13.22
2019-02-16T08:44:26.759Z,13.01
2019-02-16T08:48:01.659Z,12.77
2019-02-16T08:48:54.950Z,12.84
2019-02-16T08:49:47.401Z,13.14
2019-02-16T08:50:39.870Z,13.53
2019-02-16T08:51:32.543Z,14.12
2019-02-16T08:52:24.839Z,14.66
2019-02-16T08:53:17.381Z,15
2019-02-16T08:54:09.920Z,15.46
2019-02-16T08:55:02.971Z,15.8
2019-02-16T08:55:59.487Z,15.86
2019-02-16T08:57:15.598Z,15.86
2019-02-16T09:00:31.158Z,15.41
2019-02-16T09:01:24.139Z,15.41
2019-02-16T09:02:16.599Z,15.52
2019-02-16T09:03:10.378Z,15.58
2019-02-16T09:04:04.386Z,15.71
2019-02-16T09:04:57.752Z,15.95
2019-02-16T09:05:52.886Z,16.13
2019-02-16T09:06:45.657Z,16.04
2019-02-16T09:07:39.052Z,16.01
2019-02-16T09:08:31.850Z,15.96
2019-02-16T09:09:26.721Z,15.91
2019-02-16T09:10:19.313Z,15.8
2019-02-16T09:11:12.743Z,15.56
2019-02-16T09:13:17.657Z,14.91
2019-02-16T09:14:10.888Z,14.72
2019-02-16T09:15:04.322Z,14.64
2019-02-16T09:15:57.212Z,14.45
2019-02-16T09:16:50.860Z,14.56
2019-02-16T09:17:43.418Z,14.79
2019-02-16T09:18:38.143Z,15.04
2019-02-16T09:19:30.893Z,15.41
2019-02-16T09:20:23.484Z,15.6
2019-02-16T09:21:16.735Z,15.91
2019-02-16T09:22:09.988Z,16.26
2019-02-16T09:23:05.308Z,16.27
2019-02-16T09:23:59.010Z,16.07
2019-02-16T09:24:50.822Z,16.17
2019-02-16T09:25:45.082Z,16.22
2019-02-16T09:26:39.003Z,16.29
2019-02-16T09:27:31.375Z,16.47
2019-02-16T09:28:24.064Z,16.63
2019-02-16T09:29:16.300Z,16.98
2019-02-16T09:30:10.225Z,17.09
2019-02-16T09:31:03.519Z,17.12
2019-02-16T09:32:00.737Z,17.15
2019-02-16T09:32:55.730Z,17.07
2019-02-16T09:33:49.935Z,17.14
2019-02-16T09:34:42.357Z,17.18
2019-02-16T09:35:34.518Z,17.09
2019-02-16T09:36:27.062Z,17.14
2019-02-16T09:37:19.841Z,17.2
2019-02-16T09:38:13.475Z,17.38
2019-02-16T09:39:06.754Z,17.35
2019-02-16T09:39:59.701Z,17.4
2019-02-16T09:40:52.398Z,17.43
2019-02-16T09:41:53.884Z,17.47
2019-02-16T09:42:45.812Z,17.63
2019-02-16T09:43:37.985Z,17.76
2019-02-16T09:44:31.428Z,17.73
2019-02-16T09:45:26.208Z,17.58
2019-02-16T09:46:18.758Z,17.42
2019-02-16T09:47:13.823Z,17.35
2019-02-16T09:48:06.928Z,17.39
2019-02-16T09:48:59.349Z,17.43
2019-02-16T09:49:51.671Z,17.54
2019-02-16T09:50:44.668Z,17.74
2019-02-16T09:51:36.796Z,17.71
2019-02-16T09:52:30.290Z,17.91
2019-02-16T09:53:23.149Z,17.94
2019-02-16T09:54:15.112Z,18.07
2019-02-16T09:55:09.107Z,18.29
2019-02-16T09:56:00.936Z,18.29
2019-02-16T09:56:53.205Z,18.49
2019-02-16T09:57:47.238Z,18.62
2019-02-16T09:58:39.927Z,18.83
2019-02-16T09:59:32.864Z,18.99
2019-02-16T10:00:25.692Z,19.27
2019-02-16T10:01:18.433Z,19.65
2019-02-16T10:02:11.538Z,19.8
2019-02-16T10:03:04.360Z,19.85
2019-02-16T10:03:57.072Z,19.71
2019-02-16T10:04:50.054Z,19.67
2019-02-16T10:05:42.520Z,19.82
2019-02-16T10:06:35.242Z,19.7
2019-02-16T10:07:27.634Z,19.61
2019-02-16T10:08:19.972Z,19.52
2019-02-16T10:09:08.596Z,19.57
2019-02-16T10:09:49.187Z,19.5
2019-02-16T10:10:30.190Z,19.4
2019-02-16T10:11:10.930Z,19.42
2019-02-16T10:11:51.832Z,19.43
2019-02-16T10:12:53.506Z,19.64
2019-02-16T10:15:59.662Z,20.35
2019-02-16T10:16:52.785Z,20.48
2019-02-16T10:17:44.445Z,20.58
2019-02-16T10:18:37.290Z,20.63
2019-02-16T10:19:32.011Z,20.51
2019-02-16T10:20:24.119Z,20.31
2019-02-16T10:21:16.080Z,20.37
2019-02-16T10:22:09.266Z,20.58
2019-02-16T10:23:01.458Z,20.81
2019-02-16T10:23:56.467Z,20.96
2019-02-16T10:24:49.418Z,21.05
2019-02-16T10:25:41.974Z,21.24
2019-02-16T10:26:38.246Z,21.46
2019-02-16T10:27:31.409Z,21.63
2019-02-16T10:28:25.967Z,21.68
2019-02-16T10:29:18.550Z,21.68
2019-02-16T11:06:32.151Z,22.94
2019-02-16T11:07:27.974Z,22.69
2019-02-16T11:08:20.566Z,22.6
2019-02-16T11:09:13.780Z,22.46
2019-02-16T11:10:05.770Z,22.36
2019-02-16T11:11:02.722Z,22.45
2019-02-16T11:11:56.233Z,22.44
2019-02-16T11:12:49.601Z,22.52
2019-02-16T11:13:41.826Z,22.52
2019-02-16T11:14:34.238Z,22.66
2019-02-16T11:15:30.441Z,22.75
2019-02-16T11:16:23.810Z,22.75
2019-02-16T11:17:19.592Z,22.74
2019-02-16T11:20:24.411Z,22.6
2019-02-16T11:21:20.245Z,22.88
2019-02-16T11:22:12.964Z,22.97
2019-02-16T11:23:06.804Z,22.89
2019-02-16T11:24:01.230Z,22.76
2019-02-16T11:24:55.383Z,22.88
2019-02-16T11:25:48.303Z,22.96
2019-02-16T11:26:41.318Z,23.12
2019-02-16T11:27:35.421Z,23.09
2019-02-16T11:28:28.199Z,23.01
2019-02-16T11:29:20.381Z,23.31
2019-02-16T11:30:15.116Z,23.47
2019-02-16T11:31:08.098Z,23.63
2019-02-16T11:32:01.862Z,23.87
2019-02-16T11:32:55.041Z,24.02